Time;durP1;ratioP1;P1;durP2;ratioP2;P2;SDS_P1;SDS_P2;PMS_P1;PMS_P2;Temp;Humidity;BMP_temperature;BMP_pressure;BME280_temperature;BME280_humidity;BME280_pressure;Samples;Min_cycle;Max_cycle;Signal;HPM_P1;HPM_P2
2023/08/14 00:01:51;;;;;;;13.32;3.45;;;17.90;99.90;;;;;;5047414;28;20059;-75
2023/08/14 00:04:17;;;;;;;11.25;2.53;;;17.90;99.90;;;;;;5049504;28;20172;-75
2023/08/14 00:06:42;;;;;;;8.10;2.88;;;17.80;99.90;;;;;;5050180;28;20017;-75
2023/08/14 00:09:08;;;;;;;12.32;3.13;;;17.80;99.90;;;;;;5049757;28;20053;-76
2023/08/14 00:11:34;;;;;;;7.20;2.40;;;17.80;99.90;;;;;;5049951;28;20021;-75
2023/08/14 00:13:59;;;;;;;14.73;3.47;;;17.80;99.90;;;;;;5049655;28;20100;-75
2023/08/14 00:16:26;;;;;;;14.23;2.95;;;17.80;99.90;;;;;;5048070;28;20029;-75
2023/08/14 00:18:53;;;;;;;12.98;3.13;;;17.80;99.90;;;;;;5050127;28;20017;-75
2023/08/14 00:21:19;;;;;;;12.02;2.88;;;17.80;99.90;;;;;;5049394;28;20084;-75
2023/08/14 00:23:44;;;;;;;13.73;3.20;;;17.80;99.90;;;;;;5049880;28;20024;-75
2023/08/14 00:26:12;;;;;;;10.25;3.20;;;17.80;99.90;;;;;;5049935;28;20029;-75
2023/08/14 00:28:38;;;;;;;10.95;3.30;;;17.70;99.90;;;;;;5050266;28;20108;-76
2023/08/14 00:31:03;;;;;;;14.27;3.70;;;17.70;99.90;;;;;;5049886;28;20543;-75
2023/08/14 00:33:29;;;;;;;13.63;3.70;;;17.70;99.90;;;;;;5049878;28;20053;-75
2023/08/14 00:35:54;;;;;;;14.52;3.95;;;17.70;99.90;;;;;;5049612;28;20143;-76
2023/08/14 00:38:20;;;;;;;14.88;3.38;;;17.70;99.90;;;;;;5049554;28;20495;-76
2023/08/14 00:40:46;;;;;;;12.75;3.42;;;17.70;99.90;;;;;;5049624;28;20104;-75
2023/08/14 00:43:12;;;;;;;13.65;3.67;;;17.70;99.90;;;;;;5037137;28;20425;-75
2023/08/14 00:45:38;;;;;;;11.57;3.15;;;17.70;99.90;;;;;;5049211;28;20133;-75
2023/08/14 00:48:05;;;;;;;11.30;3.40;;;17.70;99.90;;;;;;5052786;28;20361;-76
2023/08/14 00:50:31;;;;;;;12.68;3.40;;;17.70;99.90;;;;;;5053389;28;20025;-75
2023/08/14 00:52:59;;;;;;;16.75;3.33;;;17.70;99.90;;;;;;5052560;28;20029;-75
2023/08/14 00:55:28;;;;;;;15.07;3.90;;;17.70;99.90;;;;;;5053546;28;20025;-75
2023/08/14 00:57:54;;;;;;;10.38;3.65;;;17.70;99.90;;;;;;5051714;28;20024;-75
2023/08/14 01:00:21;;;;;;;11.40;3.47;;;17.70;99.90;;;;;;5041415;28;20056;-75
2023/08/14 01:02:48;;;;;;;16.05;3.80;;;17.60;99.90;;;;;;5053331;28;20017;-75
2023/08/14 01:05:15;;;;;;;13.80;4.05;;;17.60;99.90;;;;;;5052153;28;20044;-75
2023/08/14 01:07:41;;;;;;;20.85;4.10;;;17.60;99.90;;;;;;5048138;28;20024;-75
2023/08/14 01:10:08;;;;;;;12.93;3.78;;;17.60;99.90;;;;;;5047006;28;20028;-75
2023/08/14 01:12:58;;;;;;;13.52;3.83;;;17.60;99.90;;;;;;5052741;28;20027;-75
2023/08/14 01:15:33;;;;;;;13.20;4.05;;;17.60;99.90;;;;;;5053002;28;20387;-75
2023/08/14 01:18:00;;;;;;;;;;;17.60;99.90;;;;;;5051772;28;20430;-75
2023/08/14 01:20:29;;;;;;;13.95;3.88;;;17.50;99.90;;;;;;5052933;28;19905;-75
2023/08/14 01:23:33;;;;;;;14.07;3.83;;;17.50;99.90;;;;;;5036357;28;20021;-75
2023/08/14 01:26:00;;;;;;;13.13;3.70;;;17.50;99.90;;;;;;5036453;28;20037;-75
2023/08/14 01:28:27;;;;;;;14.43;4.00;;;17.50;99.90;;;;;;5052035;28;20144;-75
2023/08/14 01:30:54;;;;;;;12.02;3.72;;;17.50;99.90;;;;;;5052957;28;20025;-75
2023/08/14 01:33:19;;;;;;;14.32;3.50;;;17.50;99.90;;;;;;5051633;28;20092;-75
2023/08/14 01:35:52;;;;;;;12.88;3.60;;;17.50;99.90;;;;;;5052226;28;20453;-75
2023/08/14 01:38:42;;;;;;;10.43;3.35;;;17.50;99.90;;;;;;5045338;28;20010;-75
2023/08/14 01:41:30;;;;;;;12.85;3.38;;;17.50;99.90;;;;;;5052184;28;20384;-75
2023/08/14 01:43:59;;;;;;;7.00;3.30;;;17.50;99.90;;;;;;5042958;28;20374;-75
2023/08/14 01:46:26;;;;;;;7.18;3.30;;;17.50;99.90;;;;;;5052689;28;20056;-75
2023/08/14 01:48:53;;;;;;;8.73;3.08;;;17.40;99.90;;;;;;5049951;28;20534;-76
2023/08/14 01:51:20;;;;;;;11.15;3.45;;;17.40;99.90;;;;;;5050914;28;20024;-76
2023/08/14 01:53:47;;;;;;;11.93;3.15;;;17.40;99.90;;;;;;5050400;28;20025;-76
2023/08/14 01:56:12;;;;;;;10.23;3.25;;;17.40;99.90;;;;;;5051513;28;20059;-76
2023/08/14 01:58:38;;;;;;;10.68;3.47;;;17.40;99.90;;;;;;5050331;28;20115;-76
2023/08/14 02:01:04;;;;;;;13.20;3.33;;;17.40;99.90;;;;;;5052304;28;20462;-76
2023/08/14 02:03:30;;;;;;;9.13;3.13;;;17.30;99.90;;;;;;5050244;28;20095;-76
2023/08/14 02:05:56;;;;;;;9.95;3.17;;;17.30;99.90;;;;;;5039123;28;20455;-75
2023/08/14 02:08:21;;;;;;;10.75;3.08;;;17.30;99.90;;;;;;5051335;28;20025;-76
2023/08/14 02:10:47;;;;;;;10.60;3.17;;;17.30;99.90;;;;;;5051850;28;20435;-75
2023/08/14 02:13:13;;;;;;;10.35;3.40;;;17.30;99.90;;;;;;5050693;28;20032;-75
2023/08/14 02:15:39;;;;;;;8.80;3.13;;;17.20;99.90;;;;;;5051989;28;20424;-76
2023/08/14 02:18:04;;;;;;;8.55;3.08;;;17.20;99.90;;;;;;5053738;28;20024;-76
2023/08/14 02:20:30;;;;;;;11.10;3.22;;;17.20;99.90;;;;;;5053565;28;20478;-76
2023/08/14 02:22:56;;;;;;;8.38;3.10;;;17.20;99.90;;;;;;5051617;28;20029;-75
2023/08/14 02:25:21;;;;;;;12.38;3.17;;;17.20;99.90;;;;;;5051910;28;20439;-76
2023/08/14 02:27:47;;;;;;;9.93;3.10;;;17.10;99.90;;;;;;5051668;28;20029;-76
2023/08/14 02:30:13;;;;;;;10.20;3.40;;;17.10;99.90;;;;;;5051357;28;20025;-75
2023/08/14 02:32:38;;;;;;;7.55;3.15;;;17.10;99.90;;;;;;5051354;28;20468;-76
2023/08/14 02:35:04;;;;;;;9.68;3.00;;;17.10;99.90;;;;;;5050174;28;20029;-76
2023/08/14 02:37:30;;;;;;;8.68;3.35;;;17.10;99.90;;;;;;5050192;28;20454;-75
2023/08/14 02:39:56;;;;;;;9.40;3.03;;;17.00;99.90;;;;;;5050651;28;20064;-75
2023/08/14 02:42:21;;;;;;;6.53;3.03;;;17.00;99.90;;;;;;5051126;28;20025;-76
2023/08/14 02:44:47;;;;;;;8.38;3.50;;;17.00;99.90;;;;;;5050741;28;20100;-76
2023/08/14 02:47:14;;;;;;;10.90;3.50;;;17.00;99.90;;;;;;5044835;28;20103;-76
2023/08/14 02:49:39;;;;;;;8.15;3.40;;;17.00;99.90;;;;;;5051019;28;20017;-75
2023/08/14 02:52:05;;;;;;;7.60;2.90;;;17.00;99.90;;;;;;5045688;28;20611;-76
2023/08/14 02:54:31;;;;;;;8.15;2.90;;;17.00;99.90;;;;;;5051224;28;20415;-75
2023/08/14 02:56:57;;;;;;;7.65;3.17;;;16.90;99.90;;;;;;5039055;28;20029;-76
2023/08/14 02:59:22;;;;;;;9.77;3.30;;;16.90;99.90;;;;;;5049566;28;20056;-75
2023/08/14 03:01:48;;;;;;;9.70;3.30;;;16.90;99.90;;;;;;5050578;28;20017;-76
2023/08/14 03:04:15;;;;;;;11.70;2.83;;;16.90;99.90;;;;;;5051012;28;20113;-76
2023/08/14 03:06:41;;;;;;;9.63;3.25;;;16.80;99.90;;;;;;5050940;28;20102;-76
2023/08/14 03:09:07;;;;;;;7.32;3.15;;;16.80;99.90;;;;;;5048917;28;20667;-76
2023/08/14 03:11:32;;;;;;;8.10;3.00;;;16.80;99.90;;;;;;5050179;28;20025;-76
2023/08/14 03:13:58;;;;;;;7.75;3.10;;;16.80;99.90;;;;;;5050410;28;20396;-75
2023/08/14 03:16:24;;;;;;;5.22;2.85;;;16.80;99.90;;;;;;5049950;28;20025;-76
2023/08/14 03:18:50;;;;;;;9.13;2.80;;;16.80;99.90;;;;;;5039827;28;20316;-76
2023/08/14 03:21:15;;;;;;;8.32;2.90;;;16.80;99.90;;;;;;5048799;28;20080;-76
2023/08/14 03:23:41;;;;;;;5.85;2.90;;;16.80;99.90;;;;;;5050258;28;20044;-76
2023/08/14 03:26:07;;;;;;;7.07;2.90;;;16.80;99.90;;;;;;5048827;28;20096;-75
2023/08/14 03:28:32;;;;;;;10.23;2.97;;;16.80;99.90;;;;;;5050781;28;20017;-75
2023/08/14 03:30:58;;;;;;;7.05;2.90;;;16.80;99.90;;;;;;5049985;28;20040;-76
2023/08/14 03:33:24;;;;;;;7.95;2.70;;;16.80;99.90;;;;;;5050205;28;20021;-75
2023/08/14 03:35:53;;;;;;;9.38;2.72;;;16.70;99.90;;;;;;5050210;28;20103;-75
2023/08/14 03:38:19;;;;;;;10.65;2.72;;;16.70;99.90;;;;;;5045758;28;20119;-78
2023/08/14 03:40:45;;;;;;;5.15;2.25;;;16.70;99.90;;;;;;5045062;28;20471;-75
2023/08/14 03:43:10;;;;;;;6.78;2.30;;;16.70;99.90;;;;;;5051113;28;20028;-75
2023/08/14 03:45:36;;;;;;;6.22;2.38;;;16.70;99.90;;;;;;5049770;28;20100;-75
2023/08/14 03:48:02;;;;;;;11.20;2.47;;;16.70;99.90;;;;;;5049559;28;20021;-75
2023/08/14 03:50:27;;;;;;;4.68;2.22;;;16.70;99.90;;;;;;5049345;28;20021;-75
2023/08/14 03:52:55;;;;;;;6.70;2.58;;;16.80;99.90;;;;;;5050683;28;20024;-75
2023/08/14 03:55:20;;;;;;;6.50;2.35;;;16.70;99.90;;;;;;5036365;28;20105;-75
2023/08/14 03:57:46;;;;;;;5.93;2.80;;;16.70;99.90;;;;;;5049931;28;20468;-75
2023/08/14 04:00:13;;;;;;;5.25;2.55;;;16.70;99.90;;;;;;5048766;28;20049;-75
2023/08/14 04:02:39;;;;;;;4.80;2.22;;;16.70;99.90;;;;;;5039279;28;20021;-75
2023/08/14 04:05:05;;;;;;;6.53;2.20;;;16.80;99.90;;;;;;5049391;28;20372;-75
2023/08/14 04:07:31;;;;;;;5.68;2.17;;;16.80;99.90;;;;;;5050283;28;20040;-75
2023/08/14 04:09:56;;;;;;;4.72;2.40;;;16.80;99.90;;;;;;5049971;28;20063;-75
2023/08/14 04:12:22;;;;;;;7.20;2.00;;;16.70;99.90;;;;;;5050119;28;20017;-75
2023/08/14 04:14:51;;;;;;;6.43;2.30;;;16.70;99.90;;;;;;5050406;28;20037;-75
2023/08/14 04:17:17;;;;;;;5.15;2.30;;;16.70;99.90;;;;;;5050019;28;20021;-75
2023/08/14 04:19:43;;;;;;;5.07;2.08;;;16.70;99.90;;;;;;5049554;28;20383;-75
2023/08/14 04:22:09;;;;;;;6.45;2.53;;;16.70;99.90;;;;;;5052635;28;20032;-75
2023/08/14 04:24:34;;;;;;;4.60;2.42;;;16.70;99.90;;;;;;5053070;28;20025;-75
2023/08/14 04:27:00;;;;;;;4.95;2.13;;;16.70;99.90;;;;;;5054235;28;20044;-75
2023/08/14 04:29:26;;;;;;;4.47;2.45;;;16.70;99.90;;;;;;5052218;28;20064;-75
2023/08/14 04:31:51;;;;;;;8.90;2.45;;;16.70;99.90;;;;;;5042546;28;20021;-75
2023/08/14 04:34:17;;;;;;;6.90;2.28;;;16.70;99.90;;;;;;5043898;28;20528;-75
2023/08/14 04:36:43;;;;;;;4.75;2.40;;;16.70;99.90;;;;;;5049899;28;20414;-74
2023/08/14 04:39:09;;;;;;;4.63;2.22;;;16.70;99.90;;;;;;5048976;28;20017;-75
2023/08/14 04:41:34;;;;;;;7.43;2.40;;;16.70;99.90;;;;;;5046057;28;20021;-75
2023/08/14 04:44:00;;;;;;;6.93;2.40;;;16.80;99.90;;;;;;5046992;28;20030;-75
2023/08/14 04:46:31;;;;;;;7.70;2.63;;;16.80;99.90;;;;;;5053542;28;20091;-75
2023/08/14 04:48:57;;;;;;;5.70;2.33;;;16.80;99.90;;;;;;5052056;28;20027;-75
2023/08/14 04:51:23;;;;;;;6.72;2.65;;;16.80;99.90;;;;;;5054104;28;20021;-77
2023/08/14 04:53:48;;;;;;;3.58;2.42;;;16.80;99.90;;;;;;5049982;28;20029;-75
2023/08/14 04:56:14;;;;;;;5.03;2.20;;;16.80;99.90;;;;;;5053292;28;20021;-75
2023/08/14 04:58:40;;;;;;;4.88;2.20;;;16.80;99.90;;;;;;5050834;28;20045;-75
2023/08/14 05:01:05;;;;;;;6.85;2.47;;;16.80;99.90;;;;;;5052795;28;20064;-75
2023/08/14 05:03:31;;;;;;;5.68;2.75;;;16.80;99.90;;;;;;5051894;28;20029;-75
2023/08/14 05:05:57;;;;;;;4.20;2.40;;;16.80;99.90;;;;;;5041387;28;20096;-75
2023/08/14 05:08:22;;;;;;;9.80;2.80;;;16.90;99.90;;;;;;5052849;28;20036;-75
2023/08/14 05:10:52;;;;;;;5.57;2.13;;;16.90;99.90;;;;;;5053428;28;20052;-74
2023/08/14 05:13:18;;;;;;;4.53;2.35;;;16.90;99.90;;;;;;5049597;28;20514;-75
2023/08/14 05:15:47;;;;;;;7.93;2.78;;;16.90;99.90;;;;;;5052851;28;20107;-75
2023/08/14 05:18:13;;;;;;;5.05;2.42;;;16.90;99.90;;;;;;5052961;28;20478;-75
2023/08/14 05:20:42;;;;;;;5.10;2.30;;;16.90;99.90;;;;;;5053108;28;20444;-75
2023/08/14 05:23:07;;;;;;;10.68;2.85;;;17.00;99.90;;;;;;5051671;28;20028;-75
2023/08/14 05:25:33;;;;;;;4.50;2.70;;;17.00;99.90;;;;;;5053035;28;20033;-75
2023/08/14 05:27:59;;;;;;;6.05;2.80;;;17.00;99.90;;;;;;5041788;28;20100;-75
2023/08/14 05:30:24;;;;;;;7.75;2.97;;;17.00;99.90;;;;;;5046974;28;20067;-75
2023/08/14 05:32:50;;;;;;;8.70;3.00;;;17.00;99.90;;;;;;5049609;28;20025;-75
2023/08/14 05:35:16;;;;;;;7.28;2.75;;;17.00;99.90;;;;;;5033861;28;20461;-74
2023/08/14 05:37:42;;;;;;;9.32;2.80;;;17.00;99.90;;;;;;5052239;28;20029;-74
2023/08/14 05:40:10;;;;;;;8.98;2.92;;;17.10;99.90;;;;;;5052444;28;20029;-75
2023/08/14 05:42:36;;;;;;;10.75;3.22;;;17.10;99.90;;;;;;5053452;28;20025;-75
2023/08/14 05:45:02;;;;;;;9.60;3.22;;;17.10;99.90;;;;;;5053164;28;20017;-75
2023/08/14 05:47:28;;;;;;;9.02;2.80;;;17.20;99.90;;;;;;5053191;28;20023;-75
2023/08/14 05:49:53;;;;;;;7.53;2.65;;;17.20;99.90;;;;;;5052707;28;20055;-74
2023/08/14 05:52:19;;;;;;;5.63;2.80;;;17.30;99.90;;;;;;5046617;28;20139;-75
2023/08/14 05:54:45;;;;;;;7.53;2.70;;;17.30;99.90;;;;;;5052966;28;20372;-75
2023/08/14 05:57:10;;;;;;;11.38;2.92;;;17.30;99.90;;;;;;5052725;28;20032;-74
2023/08/14 05:59:36;;;;;;;7.13;3.47;;;17.40;99.90;;;;;;5052667;28;20068;-75
2023/08/14 06:02:02;;;;;;;5.57;3.20;;;17.40;99.90;;;;;;5054268;28;20533;-75
2023/08/14 06:04:27;;;;;;;9.43;3.53;;;17.50;99.90;;;;;;5049139;28;20372;-75
2023/08/14 06:06:53;;;;;;;6.68;3.00;;;17.50;99.90;;;;;;5051474;28;20025;-75
2023/08/14 06:09:19;;;;;;;6.70;3.55;;;17.50;99.90;;;;;;5042151;28;20039;-74
2023/08/14 06:11:45;;;;;;;8.55;3.13;;;17.60;99.90;;;;;;5051627;28;20009;-75
2023/08/14 06:14:11;;;;;;;7.13;3.22;;;17.60;99.90;;;;;;5050416;28;20021;-75
2023/08/14 06:16:37;;;;;;;12.18;3.65;;;17.60;99.90;;;;;;5049925;28;20017;-75
2023/08/14 06:19:02;;;;;;;7.63;3.35;;;17.70;99.90;;;;;;5051220;28;20072;-75
2023/08/14 06:21:28;;;;;;;4.95;3.50;;;17.70;99.90;;;;;;5040176;28;20027;-75
2023/08/14 06:23:53;;;;;;;9.73;3.80;;;17.80;99.90;;;;;;5043286;28;20575;-75
2023/08/14 06:26:19;;;;;;;7.75;3.38;;;17.90;99.90;;;;;;5044469;28;20519;-75
2023/08/14 06:28:45;;;;;;;8.68;3.90;;;17.90;99.90;;;;;;5049626;28;20016;-75
2023/08/14 06:31:10;;;;;;;8.68;3.60;;;18.00;99.90;;;;;;5046414;28;20027;-75
2023/08/14 06:33:36;;;;;;;9.30;4.50;;;18.00;99.90;;;;;;5051738;28;20025;-75
2023/08/14 06:36:02;;;;;;;10.20;4.47;;;18.10;99.90;;;;;;5040136;28;20029;-75
2023/08/14 06:38:27;;;;;;;8.93;4.47;;;18.10;99.90;;;;;;5050362;28;20290;-75
2023/08/14 06:40:53;;;;;;;11.02;4.88;;;18.20;99.90;;;;;;5050399;28;20025;-74
2023/08/14 06:43:20;;;;;;;10.15;4.65;;;18.20;99.90;;;;;;5051352;28;20029;-74
2023/08/14 06:45:46;;;;;;;9.65;4.82;;;18.30;99.90;;;;;;5047222;28;20426;-74
2023/08/14 06:48:12;;;;;;;10.35;4.63;;;18.30;99.90;;;;;;5049319;28;20021;-74
2023/08/14 06:50:38;;;;;;;8.35;4.88;;;18.40;99.90;;;;;;5050270;28;20071;-74
2023/08/14 06:53:03;;;;;;;10.18;4.97;;;18.40;99.90;;;;;;5050782;28;20044;-74
2023/08/14 06:55:29;;;;;;;12.25;4.32;;;18.40;99.90;;;;;;5048991;28;20032;-74
2023/08/14 06:57:55;;;;;;;12.20;5.28;;;18.40;99.90;;;;;;5045942;28;20021;-74
2023/08/14 07:00:20;;;;;;;16.58;5.45;;;18.50;99.90;;;;;;5047220;28;20074;-74
2023/08/14 07:02:47;;;;;;;12.50;5.30;;;18.50;99.90;;;;;;5042002;28;20021;-74
2023/08/14 07:05:13;;;;;;;12.65;5.30;;;18.60;99.90;;;;;;5040936;28;20380;-74
2023/08/14 07:07:39;;;;;;;12.85;5.15;;;18.70;99.90;;;;;;5044366;28;20021;-75
2023/08/14 07:10:05;;;;;;;10.85;4.90;;;18.70;99.90;;;;;;5048950;28;20025;-74
2023/08/14 07:12:31;;;;;;;13.82;5.53;;;18.80;99.90;;;;;;5045627;28;20021;-74
2023/08/14 07:14:57;;;;;;;13.65;5.45;;;18.90;99.90;;;;;;5050245;28;20029;-74
2023/08/14 07:17:23;;;;;;;10.48;4.50;;;18.90;99.90;;;;;;5036981;28;20068;-74
2023/08/14 07:19:49;;;;;;;9.45;4.72;;;19.00;99.90;;;;;;5039142;28;20029;-74
2023/08/14 07:22:14;;;;;;;10.32;4.40;;;19.00;99.90;;;;;;5050557;28;20100;-74
2023/08/14 07:24:40;;;;;;;9.68;4.40;;;19.10;99.90;;;;;;5041062;28;20029;-74
2023/08/14 07:27:06;;;;;;;11.57;4.60;;;19.10;99.90;;;;;;5050391;28;20021;-74
2023/08/14 07:29:31;;;;;;;10.07;4.50;;;19.20;99.90;;;;;;5042436;28;20017;-74
2023/08/14 07:31:57;;;;;;;11.10;4.63;;;19.20;99.90;;;;;;5044422;28;20472;-74
2023/08/14 07:34:23;;;;;;;14.35;4.28;;;19.30;99.90;;;;;;5050159;28;20021;-74
2023/08/14 07:36:48;;;;;;;11.20;4.13;;;19.30;99.90;;;;;;5046363;28;20022;-74
2023/08/14 07:39:14;;;;;;;13.38;4.20;;;19.40;99.90;;;;;;5047711;28;20021;-74
2023/08/14 07:41:40;;;;;;;11.43;4.00;;;19.40;99.90;;;;;;5050090;28;20028;-74
2023/08/14 07:44:05;;;;;;;12.63;4.38;;;19.50;99.90;;;;;;5050319;28;20028;-74
2023/08/14 07:46:31;;;;;;;9.85;3.75;;;19.60;99.90;;;;;;5049762;28;20018;-74
2023/08/14 07:48:57;;;;;;;7.32;3.33;;;19.70;99.90;;;;;;5050070;28;20396;-74
2023/08/14 07:51:22;;;;;;;12.73;3.25;;;19.90;99.90;;;;;;5049792;28;20026;-74
2023/08/14 07:53:48;;;;;;;7.15;2.90;;;20.00;99.90;;;;;;5046815;28;20100;-74
2023/08/14 07:56:14;;;;;;;8.77;2.53;;;20.20;99.90;;;;;;5051149;28;20043;-74
2023/08/14 07:58:41;;;;;;;6.72;2.35;;;20.30;99.90;;;;;;5054456;28;20175;-74
2023/08/14 08:01:07;;;;;;;4.15;2.30;;;20.60;99.90;;;;;;5054593;28;20025;-74
2023/08/14 08:03:33;;;;;;;7.45;2.10;;;20.70;99.90;;;;;;5053358;28;20020;-74
2023/08/14 08:06:00;;;;;;;6.45;1.80;;;20.90;99.90;;;;;;5044170;28;20021;-74
2023/08/14 08:08:25;;;;;;;6.55;1.65;;;21.10;99.90;;;;;;5055402;28;20017;-74
2023/08/14 08:10:51;;;;;;;3.72;1.40;;;21.30;99.90;;;;;;5054753;28;20087;-74
2023/08/14 08:13:17;;;;;;;3.95;1.30;;;21.50;99.90;;;;;;5053651;28;20020;-74
2023/08/14 08:15:42;;;;;;;4.63;1.20;;;21.60;99.90;;;;;;5053976;28;20055;-74
2023/08/14 08:18:08;;;;;;;2.33;1.35;;;21.70;99.90;;;;;;5053602;28;20017;-74
2023/08/14 08:20:34;;;;;;;3.92;1.20;;;21.80;99.90;;;;;;5053588;28;20020;-74
2023/08/14 08:22:59;;;;;;;6.15;1.30;;;22.00;99.90;;;;;;5041215;28;20103;-74
2023/08/14 08:25:25;;;;;;;3.40;1.10;;;22.20;99.90;;;;;;5053096;28;20542;-74
2023/08/14 08:27:50;;;;;;;3.78;1.20;;;22.30;99.90;;;;;;5053497;28;20021;-74
2023/08/14 08:30:16;;;;;;;3.30;1.17;;;22.50;99.90;;;;;;5046358;28;20082;-73
2023/08/14 08:32:42;;;;;;;3.85;1.05;;;22.70;99.90;;;;;;5037589;28;20030;-74
2023/08/14 08:35:08;;;;;;;3.83;1.40;;;22.80;99.90;;;;;;5053680;28;20025;-74
2023/08/14 08:37:34;;;;;;;5.55;1.17;;;22.90;99.90;;;;;;5038984;28;20112;-74
2023/08/14 08:39:59;;;;;;;7.50;1.40;;;23.00;99.90;;;;;;5052001;28;20575;-74
2023/08/14 08:42:26;;;;;;;6.32;1.65;;;23.10;99.90;;;;;;5053013;28;20060;-74
2023/08/14 08:44:55;;;;;;;4.35;1.70;;;23.10;99.90;;;;;;5052267;28;20024;-74
2023/08/14 08:47:28;;;;;;;5.03;1.50;;;23.20;99.90;;;;;;5047202;28;20017;-74
2023/08/14 08:49:54;;;;;;;5.40;1.63;;;23.30;99.90;;;;;;5053022;28;20519;-74
2023/08/14 08:52:20;;;;;;;6.20;1.67;;;23.30;99.90;;;;;;5050908;28;20037;-74
2023/08/14 08:54:47;;;;;;;6.35;1.65;;;23.40;99.90;;;;;;5048555;28;20017;-74
2023/08/14 08:57:14;;;;;;;7.57;1.60;;;23.50;99.90;;;;;;5047702;28;20014;-74
2023/08/14 08:59:39;;;;;;;5.00;2.05;;;23.60;99.90;;;;;;5047028;28;20234;-74
2023/08/14 09:02:07;;;;;;;4.53;1.73;;;23.70;99.90;;;;;;5040774;28;20093;-73
2023/08/14 09:04:33;;;;;;;5.07;1.58;;;23.80;99.90;;;;;;5039250;28;20476;-73
2023/08/14 09:06:58;;;;;;;6.30;2.03;;;24.00;99.90;;;;;;5051490;28;20048;-73
2023/08/14 09:09:24;;;;;;;8.82;2.05;;;24.10;99.90;;;;;;5047434;28;20571;-74
2023/08/14 09:11:50;;;;;;;7.88;2.22;;;24.20;99.90;;;;;;5051459;28;20036;-74
2023/08/14 09:14:17;;;;;;;7.88;2.10;;;24.20;99.90;;;;;;5053055;28;20032;-73
2023/08/14 09:16:44;;;;;;;4.55;1.80;;;24.20;99.90;;;;;;5053060;28;20028;-74
2023/08/14 09:19:14;;;;;;;8.15;1.88;;;24.20;99.90;;;;;;5053218;28;20490;-74
2023/08/14 09:21:43;;;;;;;7.53;2.03;;;24.20;99.90;;;;;;5036570;28;20036;-74
2023/08/14 09:24:10;;;;;;;6.97;1.90;;;24.30;99.90;;;;;;5049562;28;20096;-74
2023/08/14 09:26:36;;;;;;;7.35;1.75;;;24.50;99.90;;;;;;5052549;28;20020;-74
2023/08/14 09:29:02;;;;;;;10.27;2.53;;;24.70;99.90;;;;;;5045650;28;20017;-74
2023/08/14 09:31:30;;;;;;;8.05;2.13;;;24.60;99.90;;;;;;5043456;28;20030;-74
2023/08/14 09:33:56;;;;;;;6.60;2.10;;;24.70;99.90;;;;;;5045040;28;20032;-74
2023/08/14 09:36:22;;;;;;;5.75;2.03;;;24.70;99.90;;;;;;5048287;28;20399;-74
2023/08/14 09:38:51;;;;;;;8.88;2.08;;;24.70;99.90;;;;;;5051236;28;20070;-74
2023/08/14 09:41:19;;;;;;;6.45;2.15;;;24.70;99.90;;;;;;5052427;28;20423;-74
2023/08/14 09:43:45;;;;;;;7.80;2.50;;;24.80;99.90;;;;;;5052461;28;20060;-74
2023/08/14 09:46:14;;;;;;;7.20;1.98;;;24.90;99.90;;;;;;5052483;28;20313;-74
2023/08/14 09:48:45;;;;;;;7.47;1.92;;;25.00;99.90;;;;;;5050759;28;20078;-74
2023/08/14 09:51:12;;;;;;;7.32;2.20;;;25.20;99.90;;;;;;5043347;28;20044;-74
2023/08/14 09:53:52;;;;;;;5.03;1.80;;;25.20;99.90;;;;;;5049876;28;20048;-74
2023/08/14 09:56:19;;;;;;;5.80;1.80;;;25.40;99.90;;;;;;5052120;28;20037;-74
2023/08/14 09:58:46;;;;;;;9.50;1.92;;;25.50;99.90;;;;;;5051507;28;20419;-74
2023/08/14 10:01:16;;;;;;;7.28;1.60;;;25.60;99.90;;;;;;5052009;28;20313;-74
2023/08/14 10:03:42;;;;;;;6.35;1.77;;;25.70;99.90;;;;;;5040118;28;20472;-74
2023/08/14 10:06:15;;;;;;;7.18;1.92;;;25.70;99.90;;;;;;5043730;28;20021;-74
2023/08/14 10:08:44;;;;;;;6.28;1.95;;;25.80;99.90;;;;;;5050938;28;20021;-74
2023/08/14 10:11:13;;;;;;;5.75;1.63;;;25.80;99.90;;;;;;5052067;28;20021;-74
2023/08/14 10:13:45;;;;;;;6.38;1.73;;;25.90;99.90;;;;;;5041678;28;20104;-73
2023/08/14 10:16:16;;;;;;;5.40;1.63;;;26.00;99.90;;;;;;5051057;28;20025;-74
2023/08/14 10:18:44;;;;;;;10.15;2.08;;;26.10;99.90;;;;;;5049120;28;20405;-74
2023/08/14 10:21:14;;;;;;;7.63;2.00;;;26.20;99.90;;;;;;5049191;28;20083;-74
2023/08/14 10:23:41;;;;;;;6.43;1.90;;;26.10;99.90;;;;;;5051530;28;20452;-74
2023/08/14 10:26:07;;;;;;;7.13;1.77;;;26.10;99.90;;;;;;5051066;28;20021;-74
2023/08/14 10:28:33;;;;;;;4.47;1.73;;;26.20;99.40;;;;;;5045176;28;20465;-74
2023/08/14 10:31:00;;;;;;;6.35;1.83;;;26.10;98.90;;;;;;5047650;28;20304;-74
2023/08/14 10:33:27;;;;;;;8.90;2.08;;;26.00;99.20;;;;;;5045306;28;20041;-74
2023/08/14 10:35:55;;;;;;;7.72;2.13;;;26.00;99.20;;;;;;5047612;28;20116;-74
2023/08/14 10:38:39;;;;;;;7.40;1.80;;;26.00;99.40;;;;;;5043575;28;20025;-74
2023/08/14 10:41:07;;;;;;;4.95;1.50;;;25.90;98.90;;;;;;5046369;28;20086;-74
2023/08/14 10:43:32;;;;;;;5.50;1.70;;;25.80;98.80;;;;;;5035011;28;20386;-74
2023/08/14 10:45:58;;;;;;;5.68;1.70;;;25.80;98.30;;;;;;5051738;28;20021;-74
2023/08/14 10:48:24;;;;;;;7.25;1.60;;;25.90;98.20;;;;;;5051258;28;20487;-74
2023/08/14 10:50:59;;;;;;;5.65;1.88;;;26.00;97.80;;;;;;5047163;28;20471;-74
2023/08/14 10:53:25;;;;;;;5.57;1.83;;;26.00;97.60;;;;;;5049325;28;20032;-75
2023/08/14 10:55:51;;;;;;;6.53;1.80;;;26.20;97.50;;;;;;5050795;28;20021;-74
2023/08/14 10:58:32;;;;;;;8.40;2.00;;;26.20;96.50;;;;;;5050897;28;20380;-74
2023/08/14 11:01:02;;;;;;;7.90;2.00;;;26.20;96.30;;;;;;5039641;28;20021;-74
2023/08/14 11:03:30;;;;;;;7.10;1.88;;;26.30;96.70;;;;;;5051497;28;20499;-74
2023/08/14 11:05:56;;;;;;;6.88;1.73;;;26.50;96.10;;;;;;5038812;28;20036;-74
2023/08/14 11:08:23;;;;;;;7.47;1.38;;;26.50;95.60;;;;;;5050876;28;20033;-78
2023/08/14 11:10:49;;;;;;;7.63;1.80;;;26.70;94.60;;;;;;5045143;28;20025;-75
2023/08/14 11:13:16;;;;;;;5.30;1.70;;;26.60;94.20;;;;;;5048508;28;20124;-74
2023/08/14 11:15:43;;;;;;;8.25;1.90;;;26.60;94.50;;;;;;5046524;28;20025;-74
2023/08/14 11:18:09;;;;;;;4.85;1.52;;;26.70;94.30;;;;;;5048503;28;20411;-74
2023/08/14 11:20:42;;;;;;;9.75;2.25;;;26.70;93.80;;;;;;5037472;28;20022;-74
2023/08/14 11:23:08;;;;;;;5.00;1.60;;;26.70;93.30;;;;;;5047177;28;20032;-74
2023/08/14 11:25:35;;;;;;;5.43;1.63;;;26.60;93.30;;;;;;5041937;28;20021;-77
2023/08/14 11:28:01;;;;;;;4.95;1.55;;;26.60;93.70;;;;;;5059977;28;20124;-77
2023/08/14 11:30:32;;;;;;;6.00;1.55;;;26.60;93.70;;;;;;5062062;28;20056;-77
2023/08/14 11:32:57;;;;;;;4.88;1.75;;;26.60;93.50;;;;;;5063087;28;20025;-78
2023/08/14 11:35:28;;;;;;;6.15;1.60;;;26.60;93.50;;;;;;5059385;28;20072;-77
2023/08/14 11:37:54;;;;;;;7.03;1.85;;;26.60;93.30;;;;;;5062278;28;20449;-78
2023/08/14 11:40:20;;;;;;;9.13;2.00;;;26.70;93.60;;;;;;5058513;28;20033;-78
2023/08/14 11:42:45;;;;;;;6.88;2.10;;;26.80;93.80;;;;;;5057570;28;20027;-78
2023/08/14 11:45:11;;;;;;;5.70;2.00;;;26.90;93.90;;;;;;5054653;28;20021;-77
2023/08/14 11:47:39;;;;;;;10.50;2.38;;;27.10;93.60;;;;;;5054584;28;20013;-77
2023/08/14 11:50:08;;;;;;;8.45;2.28;;;27.30;93.60;;;;;;5052816;28;20070;-77
2023/08/14 11:52:37;;;;;;;6.28;2.10;;;27.40;92.70;;;;;;5051629;28;20028;-77
2023/08/14 11:55:03;;;;;;;9.13;2.03;;;27.50;92.50;;;;;;5053365;28;20045;-77
2023/08/14 11:57:30;;;;;;;5.90;2.30;;;27.50;92.30;;;;;;5052348;28;20013;-77
2023/08/14 11:59:58;;;;;;;6.68;2.05;;;27.60;91.80;;;;;;5051293;28;20505;-77
2023/08/14 12:02:25;;;;;;;6.88;2.22;;;27.60;91.50;;;;;;5048865;28;20024;-77
2023/08/14 12:04:54;;;;;;;7.50;2.10;;;27.60;91.50;;;;;;5051792;28;20031;-78
2023/08/14 12:07:21;;;;;;;7.80;2.20;;;27.60;91.30;;;;;;5054060;28;20021;-77
2023/08/14 12:09:49;;;;;;;7.30;2.30;;;27.40;91.60;;;;;;5052991;28;20047;-77
2023/08/14 12:12:16;;;;;;;8.30;2.13;;;27.60;91.80;;;;;;5052025;28;20079;-77
2023/08/14 12:14:47;;;;;;;9.30;2.20;;;27.70;91.30;;;;;;5051383;28;20052;-77
2023/08/14 12:17:13;;;;;;;11.57;2.53;;;27.70;90.10;;;;;;5040604;28;20029;-77
2023/08/14 12:19:40;;;;;;;10.25;2.15;;;27.80;89.80;;;;;;5052301;28;20017;-77
2023/08/14 12:22:07;;;;;;;8.20;2.28;;;27.80;88.60;;;;;;5053396;28;20029;-77
2023/08/14 12:24:41;;;;;;;7.75;2.30;;;27.80;88.10;;;;;;5051353;28;20465;-77
2023/08/14 12:27:33;;;;;;;14.60;2.72;;;27.70;89.00;;;;;;5045636;28;20029;-77
2023/08/14 12:29:59;;;;;;;9.45;2.58;;;27.70;88.40;;;;;;5050399;28;20136;-77
2023/08/14 12:32:25;;;;;;;8.93;2.70;;;27.70;88.80;;;;;;5052633;28;20036;-78
2023/08/14 12:34:51;;;;;;;10.70;3.20;;;27.80;89.30;;;;;;5053828;28;20020;-77
2023/08/14 12:37:17;;;;;;;6.07;2.50;;;28.00;89.60;;;;;;5052103;28;20452;-77
2023/08/14 12:39:45;;;;;;;9.52;2.40;;;28.10;88.50;;;;;;5052372;28;20074;-77
2023/08/14 12:42:14;;;;;;;9.63;2.50;;;28.20;87.60;;;;;;5049356;28;20024;-76